sensor_id;sensor_type;location;lat;lon;timestamp;temperature;humidity
61979;DHT22;47938;48.176;16.414;2023-02-02T00:02:00;2.60;99.90
61979;DHT22;47938;48.176;16.414;2023-02-02T00:04:30;2.60;99.90
61979;DHT22;47938;48.176;16.414;2023-02-02T00:06:56;2.60;99.90
61979;DHT22;47938;48.176;16.414;2023-02-02T00:09:22;2.20;99.90
61979;DHT22;47938;48.176;16.414;2023-02-02T00:11:48;1.90;99.90
61979;DHT22;47938;48.176;16.414;2023-02-02T00:14:14;1.70;99.90
61979;DHT22;47938;48.176;16.414;2023-02-02T00:16:50;1.70;99.90
61979;DHT22;47938;48.176;16.414;2023-02-02T00:19:19;1.60;99.90
61979;DHT22;47938;48.176;16.414;2023-02-02T00:21:45;1.60;99.90
61979;DHT22;47938;48.176;16.414;2023-02-02T00:24:15;1.50;99.90
61979;DHT22;47938;48.176;16.414;2023-02-02T00:26:42;1.40;99.90
61979;DHT22;47938;48.176;16.414;2023-02-02T00:29:14;1.40;99.90
61979;DHT22;47938;48.176;16.414;2023-02-02T00:31:39;1.50;99.90
61979;DHT22;47938;48.176;16.414;2023-02-02T00:34:05;1.50;99.90
61979;DHT22;47938;48.176;16.414;2023-02-02T00:36:31;1.60;99.90
61979;DHT22;47938;48.176;16.414;2023-02-02T00:38:56;1.60;99.90
61979;DHT22;47938;48.176;16.414;2023-02-02T00:41:22;1.70;99.90
61979;DHT22;47938;48.176;16.414;2023-02-02T00:43:48;1.90;99.90
61979;DHT22;47938;48.176;16.414;2023-02-02T00:46:17;1.90;99.90
61979;DHT22;47938;48.176;16.414;2023-02-02T00:48:43;2.00;99.90
61979;DHT22;47938;48.176;16.414;2023-02-02T00:51:08;2.00;99.90
61979;DHT22;47938;48.176;16.414;2023-02-02T00:53:34;2.10;99.90
61979;DHT22;47938;48.176;16.414;2023-02-02T00:56:00;2.10;99.90
61979;DHT22;47938;48.176;16.414;2023-02-02T00:58:25;2.10;99.90
61979;DHT22;47938;48.176;16.414;2023-02-02T01:00:51;2.20;99.90
61979;DHT22;47938;48.176;16.414;2023-02-02T01:03:17;2.20;99.90
61979;DHT22;47938;48.176;16.414;2023-02-02T01:05:42;2.30;99.90
61979;DHT22;47938;48.176;16.414;2023-02-02T01:08:08;2.30;99.90
61979;DHT22;47938;48.176;16.414;2023-02-02T01:10:34;2.40;99.90
61979;DHT22;47938;48.176;16.414;2023-02-02T01:13:00;2.30;99.90
61979;DHT22;47938;48.176;16.414;2023-02-02T01:15:26;2.30;99.90
61979;DHT22;47938;48.176;16.414;2023-02-02T01:17:51;2.30;99.90
61979;DHT22;47938;48.176;16.414;2023-02-02T01:20:18;2.30;99.90
61979;DHT22;47938;48.176;16.414;2023-02-02T01:22:44;2.30;99.90
61979;DHT22;47938;48.176;16.414;2023-02-02T01:25:10;2.30;99.90
61979;DHT22;47938;48.176;16.414;2023-02-02T01:27:36;2.40;99.90
61979;DHT22;47938;48.176;16.414;2023-02-02T01:30:02;2.30;99.90
61979;DHT22;47938;48.176;16.414;2023-02-02T01:32:27;2.30;99.90
61979;DHT22;47938;48.176;16.414;2023-02-02T01:34:53;2.30;99.90
61979;DHT22;47938;48.176;16.414;2023-02-02T01:37:19;2.30;99.90
61979;DHT22;47938;48.176;16.414;2023-02-02T01:39:44;2.30;99.90
61979;DHT22;47938;48.176;16.414;2023-02-02T01:42:13;2.30;99.90
61979;DHT22;47938;48.176;16.414;2023-02-02T01:47:18;2.30;99.90
61979;DHT22;47938;48.176;16.414;2023-02-02T01:49:45;2.30;99.90
61979;DHT22;47938;48.176;16.414;2023-02-02T01:52:13;2.30;99.90
61979;DHT22;47938;48.176;16.414;2023-02-02T01:54:46;2.30;99.90
61979;DHT22;47938;48.176;16.414;2023-02-02T02:00:05;2.30;99.90
61979;DHT22;47938;48.176;16.414;2023-02-02T02:02:31;2.30;99.90
61979;DHT22;47938;48.176;16.414;2023-02-02T02:05:00;2.30;99.90
61979;DHT22;47938;48.176;16.414;2023-02-02T02:07:26;2.30;99.90
61979;DHT22;47938;48.176;16.414;2023-02-02T02:09:52;2.30;99.90
61979;DHT22;47938;48.176;16.414;2023-02-02T02:12:17;2.40;99.90
61979;DHT22;47938;48.176;16.414;2023-02-02T02:14:46;2.40;99.90
61979;DHT22;47938;48.176;16.414;2023-02-02T02:31:44;2.50;99.90
61979;DHT22;47938;48.176;16.414;2023-02-02T02:34:16;2.50;99.90
61979;DHT22;47938;48.176;16.414;2023-02-02T02:40:05;2.40;99.90
61979;DHT22;47938;48.176;16.414;2023-02-02T02:42:34;2.30;99.90
61979;DHT22;47938;48.176;16.414;2023-02-02T02:45:01;2.30;99.90
61979;DHT22;47938;48.176;16.414;2023-02-02T02:47:29;2.30;99.90
61979;DHT22;47938;48.176;16.414;2023-02-02T02:49:55;2.30;99.90
61979;DHT22;47938;48.176;16.414;2023-02-02T02:52:21;2.30;99.90
61979;DHT22;47938;48.176;16.414;2023-02-02T02:54:54;2.20;99.90
61979;DHT22;47938;48.176;16.414;2023-02-02T02:57:33;2.20;99.90
61979;DHT22;47938;48.176;16.414;2023-02-02T03:00:37;2.20;99.90
61979;DHT22;47938;48.176;16.414;2023-02-02T03:05:51;2.00;99.90
61979;DHT22;47938;48.176;16.414;2023-02-02T03:08:40;2.00;99.90
61979;DHT22;47938;48.176;16.414;2023-02-02T03:11:10;2.00;99.90
61979;DHT22;47938;48.176;16.414;2023-02-02T03:13:36;2.00;99.90
61979;DHT22;47938;48.176;16.414;2023-02-02T03:16:02;2.00;99.90
61979;DHT22;47938;48.176;16.414;2023-02-02T03:18:29;2.00;99.90
61979;DHT22;47938;48.176;16.414;2023-02-02T03:20:56;2.00;99.90
61979;DHT22;47938;48.176;16.414;2023-02-02T03:23:21;2.00;99.90
61979;DHT22;47938;48.176;16.414;2023-02-02T03:25:47;2.00;99.90
61979;DHT22;47938;48.176;16.414;2023-02-02T03:28:13;2.00;99.90
61979;DHT22;47938;48.176;16.414;2023-02-02T03:30:41;2.00;99.90
61979;DHT22;47938;48.176;16.414;2023-02-02T03:33:08;2.00;99.90
61979;DHT22;47938;48.176;16.414;2023-02-02T03:35:34;2.00;99.90
61979;DHT22;47938;48.176;16.414;2023-02-02T03:37:59;2.00;99.90
61979;DHT22;47938;48.176;16.414;2023-02-02T03:40:26;2.00;99.90
61979;DHT22;47938;48.176;16.414;2023-02-02T03:42:51;2.10;99.90
61979;DHT22;47938;48.176;16.414;2023-02-02T03:45:17;2.10;99.90
61979;DHT22;47938;48.176;16.414;2023-02-02T03:47:43;2.10;99.90
61979;DHT22;47938;48.176;16.414;2023-02-02T03:50:09;2.10;99.90
61979;DHT22;47938;48.176;16.414;2023-02-02T03:52:34;2.10;99.90
61979;DHT22;47938;48.176;16.414;2023-02-02T03:55:00;2.10;99.90
61979;DHT22;47938;48.176;16.414;2023-02-02T03:57:26;2.30;99.90
61979;DHT22;47938;48.176;16.414;2023-02-02T03:59:51;2.30;99.90
61979;DHT22;47938;48.176;16.414;2023-02-02T04:02:17;2.30;99.90
61979;DHT22;47938;48.176;16.414;2023-02-02T04:04:42;2.40;99.90
61979;DHT22;47938;48.176;16.414;2023-02-02T04:07:08;2.40;99.90
61979;DHT22;47938;48.176;16.414;2023-02-02T04:09:34;2.40;99.90
61979;DHT22;47938;48.176;16.414;2023-02-02T04:11:59;2.50;99.90
61979;DHT22;47938;48.176;16.414;2023-02-02T04:14:25;2.40;99.90
61979;DHT22;47938;48.176;16.414;2023-02-02T04:16:50;2.40;99.90
61979;DHT22;47938;48.176;16.414;2023-02-02T04:19:16;2.40;99.90
61979;DHT22;47938;48.176;16.414;2023-02-02T04:21:42;2.40;99.90
61979;DHT22;47938;48.176;16.414;2023-02-02T04:24:12;2.30;99.90
61979;DHT22;47938;48.176;16.414;2023-02-02T04:26:38;2.40;99.90
61979;DHT22;47938;48.176;16.414;2023-02-02T04:29:04;2.30;99.90
61979;DHT22;47938;48.176;16.414;2023-02-02T04:31:29;2.30;99.90
61979;DHT22;47938;48.176;16.414;2023-02-02T04:33:55;2.30;99.90
61979;DHT22;47938;48.176;16.414;2023-02-02T04:36:21;2.30;99.90
61979;DHT22;47938;48.176;16.414;2023-02-02T04:38:51;2.30;99.90
61979;DHT22;47938;48.176;16.414;2023-02-02T04:41:18;2.30;99.90
61979;DHT22;47938;48.176;16.414;2023-02-02T04:43:44;2.30;99.90
61979;DHT22;47938;48.176;16.414;2023-02-02T04:46:11;2.30;99.90
61979;DHT22;47938;48.176;16.414;2023-02-02T04:48:37;2.20;99.90
61979;DHT22;47938;48.176;16.414;2023-02-02T04:51:05;2.20;99.90
61979;DHT22;47938;48.176;16.414;2023-02-02T04:53:32;2.20;99.90
61979;DHT22;47938;48.176;16.414;2023-02-02T04:56:07;2.20;99.90
61979;DHT22;47938;48.176;16.414;2023-02-02T04:58:33;2.20;99.90
61979;DHT22;47938;48.176;16.414;2023-02-02T05:00:59;2.10;99.90
61979;DHT22;47938;48.176;16.414;2023-02-02T05:03:24;2.20;99.90
61979;DHT22;47938;48.176;16.414;2023-02-02T05:05:50;2.20;99.90
61979;DHT22;47938;48.176;16.414;2023-02-02T05:08:16;2.20;99.90
61979;DHT22;47938;48.176;16.414;2023-02-02T05:10:41;2.20;99.90
61979;DHT22;47938;48.176;16.414;2023-02-02T05:13:08;2.20;99.90
61979;DHT22;47938;48.176;16.414;2023-02-02T05:15:34;2.20;99.90
61979;DHT22;47938;48.176;16.414;2023-02-02T05:18:00;2.30;99.90
61979;DHT22;47938;48.176;16.414;2023-02-02T05:20:25;2.30;99.90
61979;DHT22;47938;48.176;16.414;2023-02-02T05:22:51;2.40;99.90
61979;DHT22;47938;48.176;16.414;2023-02-02T05:25:17;2.40;99.90
61979;DHT22;47938;48.176;16.414;2023-02-02T05:27:43;2.40;99.90
61979;DHT22;47938;48.176;16.414;2023-02-02T05:30:13;2.50;99.90
61979;DHT22;47938;48.176;16.414;2023-02-02T05:32:39;2.50;99.90
61979;DHT22;47938;48.176;16.414;2023-02-02T05:35:05;2.50;99.90
61979;DHT22;47938;48.176;16.414;2023-02-02T05:37:31;2.60;99.90
61979;DHT22;47938;48.176;16.414;2023-02-02T05:39:56;2.60;99.90
61979;DHT22;47938;48.176;16.414;2023-02-02T05:42:22;2.60;99.90
61979;DHT22;47938;48.176;16.414;2023-02-02T05:44:48;2.60;99.90
61979;DHT22;47938;48.176;16.414;2023-02-02T05:47:13;2.60;99.90
61979;DHT22;47938;48.176;16.414;2023-02-02T05:49:39;2.60;99.90
61979;DHT22;47938;48.176;16.414;2023-02-02T05:52:05;2.60;99.90
61979;DHT22;47938;48.176;16.414;2023-02-02T05:54:30;2.60;99.90
61979;DHT22;47938;48.176;16.414;2023-02-02T05:56:56;2.70;99.90
61979;DHT22;47938;48.176;16.414;2023-02-02T05:59:22;2.60;99.90
61979;DHT22;47938;48.176;16.414;2023-02-02T06:01:48;2.60;99.90
61979;DHT22;47938;48.176;16.414;2023-02-02T06:04:14;2.50;99.90
61979;DHT22;47938;48.176;16.414;2023-02-02T06:06:40;2.50;99.90
61979;DHT22;47938;48.176;16.414;2023-02-02T06:09:06;2.50;99.90
61979;DHT22;47938;48.176;16.414;2023-02-02T06:11:33;2.40;99.90
61979;DHT22;47938;48.176;16.414;2023-02-02T06:13:58;2.50;99.90
61979;DHT22;47938;48.176;16.414;2023-02-02T06:16:24;2.50;99.90
61979;DHT22;47938;48.176;16.414;2023-02-02T06:18:50;2.50;99.90
61979;DHT22;47938;48.176;16.414;2023-02-02T06:21:16;2.50;99.90
61979;DHT22;47938;48.176;16.414;2023-02-02T06:23:42;2.50;99.90
61979;DHT22;47938;48.176;16.414;2023-02-02T06:26:07;2.50;99.90
61979;DHT22;47938;48.176;16.414;2023-02-02T06:28:33;2.50;99.90
61979;DHT22;47938;48.176;16.414;2023-02-02T06:31:06;2.50;99.90
61979;DHT22;47938;48.176;16.414;2023-02-02T06:33:32;2.50;99.90
61979;DHT22;47938;48.176;16.414;2023-02-02T06:36:07;2.60;99.90
61979;DHT22;47938;48.176;16.414;2023-02-02T06:38:32;2.60;99.90
61979;DHT22;47938;48.176;16.414;2023-02-02T06:40:59;2.50;99.90
61979;DHT22;47938;48.176;16.414;2023-02-02T06:43:25;2.60;99.90
61979;DHT22;47938;48.176;16.414;2023-02-02T06:45:50;2.70;99.90
61979;DHT22;47938;48.176;16.414;2023-02-02T06:48:16;2.80;99.90
61979;DHT22;47938;48.176;16.414;2023-02-02T06:50:41;2.80;99.90
61979;DHT22;47938;48.176;16.414;2023-02-02T06:53:07;2.80;99.90
61979;DHT22;47938;48.176;16.414;2023-02-02T06:55:33;2.80;99.90
61979;DHT22;47938;48.176;16.414;2023-02-02T06:57:59;2.90;99.90
61979;DHT22;47938;48.176;16.414;2023-02-02T07:00:26;3.00;99.90
61979;DHT22;47938;48.176;16.414;2023-02-02T07:02:52;2.90;99.90
61979;DHT22;47938;48.176;16.414;2023-02-02T07:05:17;3.00;99.90
61979;DHT22;47938;48.176;16.414;2023-02-02T07:07:43;3.00;99.90
61979;DHT22;47938;48.176;16.414;2023-02-02T07:10:09;3.00;99.90
61979;DHT22;47938;48.176;16.414;2023-02-02T07:12:34;3.10;99.90
61979;DHT22;47938;48.176;16.414;2023-02-02T07:15:00;3.20;99.90
61979;DHT22;47938;48.176;16.414;2023-02-02T07:17:25;3.20;99.90
61979;DHT22;47938;48.176;16.414;2023-02-02T07:19:51;3.20;99.90
61979;DHT22;47938;48.176;16.414;2023-02-02T07:22:17;3.30;99.90
61979;DHT22;47938;48.176;16.414;2023-02-02T07:24:42;3.30;99.90
61979;DHT22;47938;48.176;16.414;2023-02-02T07:27:08;3.30;99.90
61979;DHT22;47938;48.176;16.414;2023-02-02T07:29:34;3.40;99.90
61979;DHT22;47938;48.176;16.414;2023-02-02T07:31:59;3.40;99.90
61979;DHT22;47938;48.176;16.414;2023-02-02T07:34:25;3.50;99.90
61979;DHT22;47938;48.176;16.414;2023-02-02T07:36:50;3.50;99.90
61979;DHT22;47938;48.176;16.414;2023-02-02T07:39:16;3.50;99.90
61979;DHT22;47938;48.176;16.414;2023-02-02T07:41:42;3.50;99.90
61979;DHT22;47938;48.176;16.414;2023-02-02T07:44:12;3.60;99.90
61979;DHT22;47938;48.176;16.414;2023-02-02T07:46:37;3.60;99.90
61979;DHT22;47938;48.176;16.414;2023-02-02T07:49:03;3.60;99.90
61979;DHT22;47938;48.176;16.414;2023-02-02T07:51:29;3.70;99.90
61979;DHT22;47938;48.176;16.414;2023-02-02T07:53:54;3.70;99.90
61979;DHT22;47938;48.176;16.414;2023-02-02T07:56:22;3.90;99.90
61979;DHT22;47938;48.176;16.414;2023-02-02T07:58:50;3.80;99.90
61979;DHT22;47938;48.176;16.414;2023-02-02T08:01:16;3.90;99.90
61979;DHT22;47938;48.176;16.414;2023-02-02T08:03:43;3.90;99.90
61979;DHT22;47938;48.176;16.414;2023-02-02T08:06:12;4.00;99.90
61979;DHT22;47938;48.176;16.414;2023-02-02T08:08:38;4.10;99.90
61979;DHT22;47938;48.176;16.414;2023-02-02T08:11:07;4.10;99.90
61979;DHT22;47938;48.176;16.414;2023-02-02T08:13:33;4.20;99.30
61979;DHT22;47938;48.176;16.414;2023-02-02T08:15:58;4.30;99.90
61979;DHT22;47938;48.176;16.414;2023-02-02T08:18:24;4.30;99.70
61979;DHT22;47938;48.176;16.414;2023-02-02T08:20:50;4.40;99.80
61979;DHT22;47938;48.176;16.414;2023-02-02T08:23:15;4.40;97.50
61979;DHT22;47938;48.176;16.414;2023-02-02T08:25:41;4.50;97.60
61979;DHT22;47938;48.176;16.414;2023-02-02T08:28:07;4.50;97.50
61979;DHT22;47938;48.176;16.414;2023-02-02T08:30:36;4.60;96.30
61979;DHT22;47938;48.176;16.414;2023-02-02T08:33:01;4.80;95.50
61979;DHT22;47938;48.176;16.414;2023-02-02T08:35:27;4.80;94.70
61979;DHT22;47938;48.176;16.414;2023-02-02T08:37:53;4.70;94.40
61979;DHT22;47938;48.176;16.414;2023-02-02T08:40:18;4.70;95.80
61979;DHT22;47938;48.176;16.414;2023-02-02T08:42:44;4.80;94.50
61979;DHT22;47938;48.176;16.414;2023-02-02T08:45:10;4.80;95.40
61979;DHT22;47938;48.176;16.414;2023-02-02T08:47:36;4.70;95.00
61979;DHT22;47938;48.176;16.414;2023-02-02T08:50:01;4.80;94.30
61979;DHT22;47938;48.176;16.414;2023-02-02T08:52:27;4.80;94.30
61979;DHT22;47938;48.176;16.414;2023-02-02T08:54:53;4.70;93.90
61979;DHT22;47938;48.176;16.414;2023-02-02T08:57:18;4.70;94.90
61979;DHT22;47938;48.176;16.414;2023-02-02T08:59:44;4.60;95.50
61979;DHT22;47938;48.176;16.414;2023-02-02T09:02:10;4.70;94.60
61979;DHT22;47938;48.176;16.414;2023-02-02T09:04:36;4.70;94.00
61979;DHT22;47938;48.176;16.414;2023-02-02T09:07:01;4.60;94.60
61979;DHT22;47938;48.176;16.414;2023-02-02T09:09:27;4.70;94.00
61979;DHT22;47938;48.176;16.414;2023-02-02T09:11:53;4.80;92.40
61979;DHT22;47938;48.176;16.414;2023-02-02T09:14:18;4.80;92.80
61979;DHT22;47938;48.176;16.414;2023-02-02T09:16:44;4.80;92.10
61979;DHT22;47938;48.176;16.414;2023-02-02T09:19:10;4.90;92.50
61979;DHT22;47938;48.176;16.414;2023-02-02T09:21:36;4.80;92.30
61979;DHT22;47938;48.176;16.414;2023-02-02T09:24:09;4.80;91.60
61979;DHT22;47938;48.176;16.414;2023-02-02T09:26:35;4.70;92.60
61979;DHT22;47938;48.176;16.414;2023-02-02T09:29:03;4.70;93.50
61979;DHT22;47938;48.176;16.414;2023-02-02T09:31:32;4.70;91.80
61979;DHT22;47938;48.176;16.414;2023-02-02T09:34:06;4.70;92.90
61979;DHT22;47938;48.176;16.414;2023-02-02T09:36:32;4.80;92.40
61979;DHT22;47938;48.176;16.414;2023-02-02T09:38:58;4.80;92.30
61979;DHT22;47938;48.176;16.414;2023-02-02T09:47:44;5.00;92.70
61979;DHT22;47938;48.176;16.414;2023-02-02T09:50:51;5.00;90.80
61979;DHT22;47938;48.176;16.414;2023-02-02T09:55:59;5.10;90.70
61979;DHT22;47938;48.176;16.414;2023-02-02T09:58:47;5.20;90.30
61979;DHT22;47938;48.176;16.414;2023-02-02T10:01:30;5.20;88.40
61979;DHT22;47938;48.176;16.414;2023-02-02T10:04:21;5.20;89.40
61979;DHT22;47938;48.176;16.414;2023-02-02T10:06:53;5.30;89.50
61979;DHT22;47938;48.176;16.414;2023-02-02T10:09:39;5.40;88.40
61979;DHT22;47938;48.176;16.414;2023-02-02T10:15:13;5.50;84.90
61979;DHT22;47938;48.176;16.414;2023-02-02T10:20:46;5.50;84.80
61979;DHT22;47938;48.176;16.414;2023-02-02T10:23:29;5.70;83.90
61979;DHT22;47938;48.176;16.414;2023-02-02T10:26:16;5.70;83.00
61979;DHT22;47938;48.176;16.414;2023-02-02T10:36:59;5.80;80.50
61979;DHT22;47938;48.176;16.414;2023-02-02T10:44:59;6.10;78.70
61979;DHT22;47938;48.176;16.414;2023-02-02T10:47:28;6.00;76.20
61979;DHT22;47938;48.176;16.414;2023-02-02T10:50:16;6.00;77.30
61979;DHT22;47938;48.176;16.414;2023-02-02T10:52:55;5.90;76.80
61979;DHT22;47938;48.176;16.414;2023-02-02T10:55:32;5.90;78.50
61979;DHT22;47938;48.176;16.414;2023-02-02T11:03:10;6.10;78.00
61979;DHT22;47938;48.176;16.414;2023-02-02T11:05:37;6.20;76.90
61979;DHT22;47938;48.176;16.414;2023-02-02T11:08:18;6.20;76.00
61979;DHT22;47938;48.176;16.414;2023-02-02T11:10:45;6.10;75.80
61979;DHT22;47938;48.176;16.414;2023-02-02T11:13:17;6.10;75.70
61979;DHT22;47938;48.176;16.414;2023-02-02T11:15:43;6.10;76.30
61979;DHT22;47938;48.176;16.414;2023-02-02T11:18:29;6.00;77.70
61979;DHT22;47938;48.176;16.414;2023-02-02T11:20:55;5.90;77.70
61979;DHT22;47938;48.176;16.414;2023-02-02T11:23:22;5.80;79.40
61979;DHT22;47938;48.176;16.414;2023-02-02T11:26:00;5.80;80.10
61979;DHT22;47938;48.176;16.414;2023-02-02T11:28:27;5.90;77.70
61979;DHT22;47938;48.176;16.414;2023-02-02T11:30:56;5.90;78.20
61979;DHT22;47938;48.176;16.414;2023-02-02T11:33:35;5.90;80.60
61979;DHT22;47938;48.176;16.414;2023-02-02T11:36:20;5.90;78.10
61979;DHT22;47938;48.176;16.414;2023-02-02T11:38:46;5.60;79.10
61979;DHT22;47938;48.176;16.414;2023-02-02T11:41:12;5.50;80.50
61979;DHT22;47938;48.176;16.414;2023-02-02T11:43:46;5.50;82.20
61979;DHT22;47938;48.176;16.414;2023-02-02T11:46:21;5.40;83.60
61979;DHT22;47938;48.176;16.414;2023-02-02T11:49:04;5.40;83.10
61979;DHT22;47938;48.176;16.414;2023-02-02T11:51:31;5.40;83.70
61979;DHT22;47938;48.176;16.414;2023-02-02T11:54:15;5.40;83.10
61979;DHT22;47938;48.176;16.414;2023-02-02T11:56:46;5.30;84.40
61979;DHT22;47938;48.176;16.414;2023-02-02T11:59:39;5.20;86.40
61979;DHT22;47938;48.176;16.414;2023-02-02T12:02:26;5.30;85.50
61979;DHT22;47938;48.176;16.414;2023-02-02T12:05:30;5.30;85.80
61979;DHT22;47938;48.176;16.414;2023-02-02T12:07:41;5.30;85.50
61979;DHT22;47938;48.176;16.414;2023-02-02T12:10:20;5.30;85.50
61979;DHT22;47938;48.176;16.414;2023-02-02T12:16:16;5.40;87.60
61979;DHT22;47938;48.176;16.414;2023-02-02T12:21:54;5.40;86.10
61979;DHT22;47938;48.176;16.414;2023-02-02T12:24:34;5.40;85.70
61979;DHT22;47938;48.176;16.414;2023-02-02T12:35:11;5.50;85.80
61979;DHT22;47938;48.176;16.414;2023-02-02T12:38:09;5.50;85.60
61979;DHT22;47938;48.176;16.414;2023-02-02T12:41:03;5.60;84.40
61979;DHT22;47938;48.176;16.414;2023-02-02T12:43:49;5.60;82.80
61979;DHT22;47938;48.176;16.414;2023-02-02T12:54:47;5.70;82.50
61979;DHT22;47938;48.176;16.414;2023-02-02T12:57:17;5.70;81.00
61979;DHT22;47938;48.176;16.414;2023-02-02T13:02:55;5.80;79.90
61979;DHT22;47938;48.176;16.414;2023-02-02T13:08:13;5.70;80.50
61979;DHT22;47938;48.176;16.414;2023-02-02T13:10:48;5.50;81.80
61979;DHT22;47938;48.176;16.414;2023-02-02T13:13:42;5.50;83.80
61979;DHT22;47938;48.176;16.414;2023-02-02T13:16:10;5.60;83.50
61979;DHT22;47938;48.176;16.414;2023-02-02T13:18:47;5.60;83.30
61979;DHT22;47938;48.176;16.414;2023-02-02T13:21:19;5.70;83.10
61979;DHT22;47938;48.176;16.414;2023-02-02T13:23:49;5.60;83.00
61979;DHT22;47938;48.176;16.414;2023-02-02T13:26:19;5.60;83.50
61979;DHT22;47938;48.176;16.414;2023-02-02T13:28:52;5.60;83.10
61979;DHT22;47938;48.176;16.414;2023-02-02T13:31:27;5.50;84.00
61979;DHT22;47938;48.176;16.414;2023-02-02T13:34:11;5.50;84.20
61979;DHT22;47938;48.176;16.414;2023-02-02T13:36:41;5.50;83.30
61979;DHT22;47938;48.176;16.414;2023-02-02T13:39:18;5.50;84.60
61979;DHT22;47938;48.176;16.414;2023-02-02T13:41:44;5.40;85.80
61979;DHT22;47938;48.176;16.414;2023-02-02T13:44:23;5.40;84.60
61979;DHT22;47938;48.176;16.414;2023-02-02T13:49:40;5.40;86.00
61979;DHT22;47938;48.176;16.414;2023-02-02T13:58:09;5.60;84.30
61979;DHT22;47938;48.176;16.414;2023-02-02T14:00:42;5.50;85.60
61979;DHT22;47938;48.176;16.414;2023-02-02T14:03:39;5.50;85.70
61979;DHT22;47938;48.176;16.414;2023-02-02T14:06:15;5.30;87.30
61979;DHT22;47938;48.176;16.414;2023-02-02T14:08:49;5.30;88.00
61979;DHT22;47938;48.176;16.414;2023-02-02T14:11:24;5.20;87.80
61979;DHT22;47938;48.176;16.414;2023-02-02T14:13:54;5.20;88.80
61979;DHT22;47938;48.176;16.414;2023-02-02T14:16:22;5.10;89.20
61979;DHT22;47938;48.176;16.414;2023-02-02T14:34:51;5.20;89.00
61979;DHT22;47938;48.176;16.414;2023-02-02T14:45:21;4.90;91.60
61979;DHT22;47938;48.176;16.414;2023-02-02T14:47:53;4.90;91.80
61979;DHT22;47938;48.176;16.414;2023-02-02T14:50:41;4.80;92.10
61979;DHT22;47938;48.176;16.414;2023-02-02T14:58:52;4.70;92.90
61979;DHT22;47938;48.176;16.414;2023-02-02T15:03:53;4.60;94.00
61979;DHT22;47938;48.176;16.414;2023-02-02T15:06:35;4.60;93.20
61979;DHT22;47938;48.176;16.414;2023-02-02T15:25:52;4.50;94.40
61979;DHT22;47938;48.176;16.414;2023-02-02T15:30:58;4.40;95.30
61979;DHT22;47938;48.176;16.414;2023-02-02T15:33:35;4.30;95.80
61979;DHT22;47938;48.176;16.414;2023-02-02T15:36:34;4.30;96.50
61979;DHT22;47938;48.176;16.414;2023-02-02T15:39:02;4.20;96.50
61979;DHT22;47938;48.176;16.414;2023-02-02T15:41:47;4.20;96.70
61979;DHT22;47938;48.176;16.414;2023-02-02T15:44:26;4.20;96.60
61979;DHT22;47938;48.176;16.414;2023-02-02T15:46:53;4.20;96.00
61979;DHT22;47938;48.176;16.414;2023-02-02T15:51:49;4.10;97.10
61979;DHT22;47938;48.176;16.414;2023-02-02T15:54:33;4.10;96.90
61979;DHT22;47938;48.176;16.414;2023-02-02T15:57:01;4.10;97.50
61979;DHT22;47938;48.176;16.414;2023-02-02T15:59:38;4.00;97.80
61979;DHT22;47938;48.176;16.414;2023-02-02T16:04:40;3.90;99.00
61979;DHT22;47938;48.176;16.414;2023-02-02T16:07:12;3.90;99.30
61979;DHT22;47938;48.176;16.414;2023-02-02T16:09:38;3.80;99.60
61979;DHT22;47938;48.176;16.414;2023-02-02T16:12:05;3.90;99.60
61979;DHT22;47938;48.176;16.414;2023-02-02T16:14:32;3.80;99.40
61979;DHT22;47938;48.176;16.414;2023-02-02T16:17:31;3.80;99.90
61979;DHT22;47938;48.176;16.414;2023-02-02T16:20:11;3.80;99.90
61979;DHT22;47938;48.176;16.414;2023-02-02T16:22:41;3.80;99.90
61979;DHT22;47938;48.176;16.414;2023-02-02T16:25:15;3.80;99.90
61979;DHT22;47938;48.176;16.414;2023-02-02T16:27:45;3.80;99.90
61979;DHT22;47938;48.176;16.414;2023-02-02T16:30:26;3.80;99.90
61979;DHT22;47938;48.176;16.414;2023-02-02T16:32:53;3.80;99.90
61979;DHT22;47938;48.176;16.414;2023-02-02T16:35:36;3.80;99.90
61979;DHT22;47938;48.176;16.414;2023-02-02T16:38:23;3.80;99.90
61979;DHT22;47938;48.176;16.414;2023-02-02T16:40:59;3.70;99.90
61979;DHT22;47938;48.176;16.414;2023-02-02T16:43:29;3.70;99.90
61979;DHT22;47938;48.176;16.414;2023-02-02T16:45:56;3.70;99.90
61979;DHT22;47938;48.176;16.414;2023-02-02T16:51:21;3.60;99.90
61979;DHT22;47938;48.176;16.414;2023-02-02T16:56:36;3.70;99.90
61979;DHT22;47938;48.176;16.414;2023-02-02T16:59:17;3.60;99.90
61979;DHT22;47938;48.176;16.414;2023-02-02T17:01:50;3.60;99.90
61979;DHT22;47938;48.176;16.414;2023-02-02T17:04:26;3.50;99.90
61979;DHT22;47938;48.176;16.414;2023-02-02T17:06:54;3.50;99.90
61979;DHT22;47938;48.176;16.414;2023-02-02T17:09:36;3.40;99.90
61979;DHT22;47938;48.176;16.414;2023-02-02T17:14:50;3.30;99.90
61979;DHT22;47938;48.176;16.414;2023-02-02T17:17:16;3.30;99.90
61979;DHT22;47938;48.176;16.414;2023-02-02T17:19:42;3.20;99.90
61979;DHT22;47938;48.176;16.414;2023-02-02T17:22:07;3.20;99.90
61979;DHT22;47938;48.176;16.414;2023-02-02T17:24:34;3.30;99.90
61979;DHT22;47938;48.176;16.414;2023-02-02T17:27:00;3.30;99.90
61979;DHT22;47938;48.176;16.414;2023-02-02T17:29:26;3.30;99.90
61979;DHT22;47938;48.176;16.414;2023-02-02T17:31:52;3.20;99.90
61979;DHT22;47938;48.176;16.414;2023-02-02T17:34:18;3.10;99.90
61979;DHT22;47938;48.176;16.414;2023-02-02T17:36:43;3.10;99.90
61979;DHT22;47938;48.176;16.414;2023-02-02T17:39:09;3.10;99.90
61979;DHT22;47938;48.176;16.414;2023-02-02T17:41:36;3.10;99.90
61979;DHT22;47938;48.176;16.414;2023-02-02T17:44:02;3.10;99.90
61979;DHT22;47938;48.176;16.414;2023-02-02T17:46:28;3.10;99.90
61979;DHT22;47938;48.176;16.414;2023-02-02T17:48:54;3.20;99.90
61979;DHT22;47938;48.176;16.414;2023-02-02T17:51:19;3.20;99.90
61979;DHT22;47938;48.176;16.414;2023-02-02T17:53:46;3.30;99.90
61979;DHT22;47938;48.176;16.414;2023-02-02T17:56:12;3.20;99.90
61979;DHT22;47938;48.176;16.414;2023-02-02T17:58:38;3.10;99.90
61979;DHT22;47938;48.176;16.414;2023-02-02T18:01:04;3.20;99.90
61979;DHT22;47938;48.176;16.414;2023-02-02T18:03:32;3.10;99.90
61979;DHT22;47938;48.176;16.414;2023-02-02T18:05:59;3.10;99.90
61979;DHT22;47938;48.176;16.414;2023-02-02T18:08:25;3.10;99.90
61979;DHT22;47938;48.176;16.414;2023-02-02T18:10:50;3.10;99.90
61979;DHT22;47938;48.176;16.414;2023-02-02T18:13:18;3.10;99.90
61979;DHT22;47938;48.176;16.414;2023-02-02T18:15:44;3.10;99.90
61979;DHT22;47938;48.176;16.414;2023-02-02T18:18:10;3.00;99.90
61979;DHT22;47938;48.176;16.414;2023-02-02T18:20:39;3.10;99.90
61979;DHT22;47938;48.176;16.414;2023-02-02T18:23:05;3.10;99.90
61979;DHT22;47938;48.176;16.414;2023-02-02T18:25:31;3.10;99.90
61979;DHT22;47938;48.176;16.414;2023-02-02T18:27:57;3.10;99.90